createdAt,value
2018-06-30T00:01:32.835Z,85.50
2018-06-30T00:04:01.967Z,85.80
2018-06-30T00:06:31.186Z,85.90
2018-06-30T00:09:00.346Z,84.40
2018-06-30T00:11:29.472Z,83.40
2018-06-30T00:13:58.734Z,82.70
2018-06-30T00:16:27.894Z,81.10
2018-06-30T00:18:56.995Z,79.80
2018-06-30T00:21:26.120Z,79.10
2018-06-30T00:23:55.223Z,80.20
2018-06-30T00:26:24.394Z,79.70
2018-06-30T00:28:53.605Z,79.80
2018-06-30T00:31:22.702Z,80.20
2018-06-30T00:33:52.217Z,78.00
2018-06-30T00:36:21.614Z,76.40
2018-06-30T00:38:51.139Z,78.30
2018-06-30T00:41:20.028Z,81.10
2018-06-30T00:43:48.972Z,78.70
2018-06-30T00:46:18.080Z,75.70
2018-06-30T00:48:47.379Z,74.70
2018-06-30T00:51:16.678Z,76.80
2018-06-30T00:53:46.449Z,75.70
2018-06-30T00:56:17.487Z,74.70
2018-06-30T01:01:15.939Z,75.00
2018-06-30T01:03:45.015Z,74.70
2018-06-30T01:06:14.223Z,77.30
2018-06-30T01:08:43.383Z,79.60
2018-06-30T01:11:13.142Z,82.10
2018-06-30T01:13:42.403Z,82.30
2018-06-30T01:16:11.518Z,83.70
2018-06-30T01:18:40.683Z,86.10
2018-06-30T01:21:10.039Z,87.00
2018-06-30T01:23:39.186Z,85.30
2018-06-30T01:26:08.770Z,86.70
2018-06-30T01:28:37.928Z,87.20
2018-06-30T01:31:07.476Z,86.70
2018-06-30T01:33:36.963Z,87.20
2018-06-30T01:36:06.195Z,88.40
2018-06-30T01:38:35.437Z,89.40
2018-06-30T01:41:04.581Z,90.80
2018-06-30T01:43:33.785Z,92.00
2018-06-30T01:46:03.285Z,92.30
2018-06-30T01:48:32.494Z,93.10
2018-06-30T01:51:01.646Z,93.20
2018-06-30T01:53:30.808Z,93.20
2018-06-30T01:56:00.163Z,93.60
2018-06-30T01:58:29.456Z,94.20
2018-06-30T02:00:58.706Z,93.50
2018-06-30T02:03:28.341Z,94.20
2018-06-30T02:05:57.542Z,93.80
2018-06-30T02:08:26.815Z,94.20
2018-06-30T02:10:56.050Z,94.40
2018-06-30T02:13:25.255Z,94.00
2018-06-30T02:15:54.538Z,95.00
2018-06-30T02:18:23.663Z,95.50
2018-06-30T02:20:52.958Z,96.30
2018-06-30T02:23:22.339Z,96.60
2018-06-30T02:25:52.370Z,97.50
2018-06-30T02:28:21.278Z,98.00
2018-06-30T02:30:50.202Z,98.60
2018-06-30T02:33:19.086Z,98.90
2018-06-30T02:35:48.624Z,99.60
2018-06-30T02:38:17.800Z,99.90
2018-06-30T02:40:47.431Z,99.90
2018-06-30T02:43:16.334Z,99.90
2018-06-30T02:45:46.031Z,99.90
2018-06-30T02:48:15.766Z,99.90
2018-06-30T02:50:45.057Z,99.90
2018-06-30T02:53:14.318Z,99.90
2018-06-30T02:55:43.623Z,99.90
2018-06-30T02:58:12.923Z,99.90
2018-06-30T03:00:42.337Z,99.90
2018-06-30T03:03:11.946Z,99.90
2018-06-30T03:05:41.091Z,99.90
2018-06-30T03:08:10.236Z,99.90
2018-06-30T03:10:39.403Z,99.90
2018-06-30T03:13:08.703Z,99.40
2018-06-30T03:15:37.901Z,98.30
2018-06-30T03:18:07.302Z,97.50
2018-06-30T03:20:36.580Z,97.50
2018-06-30T03:23:05.947Z,96.70
2018-06-30T03:25:35.082Z,96.50
2018-06-30T03:28:04.481Z,96.30
2018-06-30T03:30:34.012Z,95.50
2018-06-30T03:33:03.085Z,95.20
2018-06-30T03:35:32.291Z,94.10
2018-06-30T03:38:01.450Z,92.90
2018-06-30T03:40:30.684Z,90.40
2018-06-30T03:42:59.828Z,80.90
2018-06-30T03:47:58.358Z,66.60
2018-06-30T03:50:27.684Z,71.10
2018-06-30T03:52:57.063Z,75.90
2018-06-30T03:55:26.359Z,77.10
2018-06-30T03:57:55.547Z,77.70
2018-06-30T04:00:24.851Z,79.80
2018-06-30T04:02:53.966Z,80.90
2018-06-30T04:05:23.685Z,80.50
2018-06-30T04:07:52.985Z,81.80
2018-06-30T04:10:22.119Z,84.20
2018-06-30T04:12:51.547Z,86.00
2018-06-30T04:15:20.944Z,87.20
2018-06-30T04:17:50.340Z,87.80
2018-06-30T04:20:19.435Z,87.00
2018-06-30T04:22:48.786Z,88.00
2018-06-30T04:25:18.028Z,86.80
2018-06-30T04:27:47.131Z,85.60
2018-06-30T04:30:16.354Z,84.40
2018-06-30T04:32:45.500Z,82.70
2018-06-30T04:35:14.824Z,85.30
2018-06-30T04:37:43.990Z,87.90
2018-06-30T04:40:13.119Z,87.40
2018-06-30T04:42:42.255Z,88.90
2018-06-30T04:47:40.279Z,86.80
2018-06-30T04:50:09.485Z,85.80
2018-06-30T04:52:39.030Z,87.50
2018-06-30T04:55:08.859Z,89.20
2018-06-30T04:57:38.096Z,87.90
2018-06-30T05:00:07.251Z,86.30
2018-06-30T05:02:36.237Z,86.20
2018-06-30T05:05:05.185Z,85.60
2018-06-30T05:07:34.362Z,82.70
2018-06-30T05:10:03.291Z,82.80
2018-06-30T05:12:32.460Z,79.30
2018-06-30T05:15:01.719Z,71.30
2018-06-30T05:17:31.348Z,68.50
2018-06-30T05:20:00.529Z,68.10
2018-06-30T05:22:29.672Z,70.50
2018-06-30T05:24:58.818Z,69.70
2018-06-30T05:27:27.997Z,69.60
2018-06-30T05:29:57.120Z,71.80
2018-06-30T05:32:26.277Z,68.50
2018-06-30T05:34:55.185Z,69.40
2018-06-30T05:37:24.344Z,65.70
2018-06-30T05:39:53.595Z,64.80
2018-06-30T05:42:22.822Z,63.40
2018-06-30T05:44:51.735Z,61.80
2018-06-30T05:47:20.628Z,60.60
2018-06-30T05:49:49.761Z,57.90
2018-06-30T05:52:18.927Z,55.90
2018-06-30T05:54:48.244Z,51.40
2018-06-30T05:57:17.546Z,50.70
2018-06-30T05:59:46.946Z,51.10
2018-06-30T06:02:16.701Z,50.00
2018-06-30T06:04:45.839Z,47.80
2018-06-30T06:07:14.953Z,47.90
2018-06-30T06:09:44.662Z,44.00
2018-06-30T06:12:13.972Z,39.70
2018-06-30T06:14:43.554Z,34.70
2018-06-30T06:17:12.782Z,30.60
2018-06-30T06:19:41.915Z,29.80
2018-06-30T06:24:39.822Z,28.60
2018-06-30T06:27:09.592Z,28.60
2018-06-30T06:29:39.114Z,29.70
2018-06-30T06:32:08.235Z,29.40
2018-06-30T06:34:37.632Z,33.20
2018-06-30T06:37:07.140Z,30.40
2018-06-30T06:39:36.219Z,28.00
2018-06-30T06:42:05.627Z,28.60
2018-06-30T06:44:34.822Z,31.10
2018-06-30T06:47:04.110Z,33.80
2018-06-30T06:49:33.423Z,34.90
2018-06-30T06:52:02.596Z,37.00
2018-06-30T06:54:31.798Z,39.20
2018-06-30T06:57:01.082Z,39.20
2018-06-30T06:59:30.407Z,39.20
2018-06-30T07:02:00.359Z,40.60
2018-06-30T07:04:44.196Z,39.20
2018-06-30T07:07:13.675Z,31.20
2018-06-30T07:09:43.426Z,26.30
2018-06-30T07:14:41.831Z,25.00
2018-06-30T07:19:40.154Z,23.50
2018-06-30T07:22:09.405Z,21.50
2018-06-30T07:27:07.542Z,27.30
2018-06-30T07:29:36.831Z,29.80
2018-06-30T07:32:06.159Z,32.80
2018-06-30T07:34:35.371Z,37.50
2018-06-30T07:39:33.438Z,26.70
2018-06-30T07:42:02.580Z,23.20
2018-06-30T07:44:31.715Z,23.20
2018-06-30T07:47:01.397Z,27.10
2018-06-30T07:49:30.630Z,32.10
2018-06-30T07:51:59.775Z,36.20
2018-06-30T07:54:28.879Z,37.00
2018-06-30T07:56:58.487Z,37.40
2018-06-30T07:59:27.802Z,39.30
2018-06-30T08:01:56.959Z,43.10
2018-06-30T08:04:25.931Z,41.40
2018-06-30T08:06:54.871Z,39.40
2018-06-30T08:09:24.023Z,31.90
2018-06-30T08:11:53.151Z,26.10
2018-06-30T08:14:22.524Z,23.30
2018-06-30T08:16:51.747Z,20.20
2018-06-30T08:19:20.918Z,19.80
2018-06-30T08:21:50.043Z,21.30
2018-06-30T08:24:19.366Z,23.50
2018-06-30T08:26:48.518Z,21.60
2018-06-30T08:29:17.804Z,18.50
2018-06-30T08:31:47.019Z,15.60
2018-06-30T08:34:16.211Z,15.50
2018-06-30T08:36:45.417Z,16.20
2018-06-30T08:39:14.998Z,17.10
2018-06-30T08:41:44.201Z,16.90
2018-06-30T08:44:13.510Z,16.10
2018-06-30T08:46:43.158Z,15.70
2018-06-30T08:49:12.333Z,13.70
2018-06-30T08:51:41.407Z,17.10
2018-06-30T08:54:10.823Z,18.50
2018-06-30T08:56:40.200Z,21.10
2018-06-30T08:59:09.414Z,24.40
2018-06-30T09:01:38.618Z,25.70
2018-06-30T09:04:07.816Z,27.10
2018-06-30T09:06:37.007Z,28.00
2018-06-30T09:09:08.955Z,24.20
2018-06-30T09:11:38.643Z,22.90
2018-06-30T09:14:08.110Z,22.10
2018-06-30T09:16:37.647Z,17.40
2018-06-30T09:19:06.885Z,16.90
2018-06-30T09:21:36.379Z,20.30
2018-06-30T09:24:05.793Z,23.90
2018-06-30T09:26:34.971Z,26.70
2018-06-30T09:29:04.313Z,28.10
2018-06-30T09:31:33.750Z,28.50
2018-06-30T09:34:03.388Z,29.30
2018-06-30T09:36:32.658Z,27.30
2018-06-30T09:39:02.154Z,26.90
2018-06-30T09:41:31.862Z,26.20
2018-06-30T09:44:01.022Z,25.60
2018-06-30T09:46:30.187Z,25.50
2018-06-30T09:49:00.205Z,24.80
2018-06-30T09:51:29.346Z,25.60
2018-06-30T09:53:59.443Z,26.10
2018-06-30T09:58:58.091Z,26.00
2018-06-30T10:01:27.374Z,26.60
2018-06-30T10:03:56.909Z,26.40
2018-06-30T10:06:26.438Z,25.90
2018-06-30T10:08:55.381Z,26.70
2018-06-30T10:11:24.835Z,27.30
2018-06-30T10:13:54.355Z,27.30
2018-06-30T10:16:23.559Z,29.20
2018-06-30T10:18:52.944Z,28.30
2018-06-30T10:21:22.178Z,28.00
2018-06-30T10:23:51.431Z,27.00
2018-06-30T10:28:50.266Z,26.40
2018-06-30T10:31:19.517Z,27.10
2018-06-30T10:33:48.768Z,26.20
2018-06-30T10:36:17.738Z,28.00
2018-06-30T10:38:47.572Z,28.50
2018-06-30T10:41:16.946Z,28.70
2018-06-30T10:43:46.137Z,27.50
2018-06-30T10:46:15.255Z,27.00
2018-06-30T10:48:44.421Z,25.30
2018-06-30T10:51:13.565Z,25.10
2018-06-30T10:53:42.730Z,25.40
2018-06-30T10:56:12.072Z,26.90
2018-06-30T10:58:41.414Z,27.30
2018-06-30T11:01:10.630Z,26.80
2018-06-30T11:03:40.366Z,26.80
2018-06-30T11:06:09.598Z,25.90
2018-06-30T11:08:38.717Z,25.20
2018-06-30T11:11:07.892Z,25.00
2018-06-30T11:13:37.331Z,25.70
2018-06-30T11:16:06.332Z,25.70
2018-06-30T11:18:35.569Z,24.50
2018-06-30T11:21:04.620Z,24.70
2018-06-30T11:23:33.527Z,24.30
2018-06-30T11:26:02.786Z,24.20
2018-06-30T11:28:32.067Z,23.20
2018-06-30T11:31:01.182Z,23.30
2018-06-30T11:33:30.440Z,23.30
2018-06-30T11:35:59.557Z,24.00
2018-06-30T11:38:29.082Z,23.50
2018-06-30T11:40:58.301Z,23.50
2018-06-30T11:43:28.059Z,23.50
2018-06-30T11:45:57.366Z,23.60
2018-06-30T11:48:26.302Z,24.30
2018-06-30T11:50:55.330Z,24.20
2018-06-30T11:53:24.340Z,23.50
2018-06-30T11:55:53.278Z,22.60
2018-06-30T11:58:22.545Z,23.10
2018-06-30T12:00:51.900Z,22.80
2018-06-30T12:03:21.233Z,23.10
2018-06-30T12:05:50.641Z,22.70
2018-06-30T12:08:20.061Z,23.80
2018-06-30T12:10:49.211Z,23.60
2018-06-30T12:13:18.443Z,22.90
2018-06-30T12:15:47.950Z,23.70
2018-06-30T12:18:17.114Z,24.20
2018-06-30T12:20:46.314Z,24.00
2018-06-30T12:23:15.550Z,23.20
2018-06-30T12:25:44.671Z,22.10
2018-06-30T12:28:13.766Z,21.80
2018-06-30T12:30:42.903Z,21.60
2018-06-30T12:33:12.447Z,21.60
2018-06-30T12:35:41.596Z,21.80
2018-06-30T12:38:11.271Z,21.20
2018-06-30T12:40:40.527Z,20.90
2018-06-30T12:43:09.945Z,20.90
2018-06-30T12:45:39.283Z,21.20
2018-06-30T12:48:08.583Z,20.50
2018-06-30T12:50:38.102Z,20.80
2018-06-30T12:53:08.028Z,21.60
2018-06-30T12:55:37.842Z,23.40
2018-06-30T12:58:07.340Z,23.90
2018-06-30T13:00:36.607Z,24.30
2018-06-30T13:03:05.603Z,24.40
2018-06-30T13:05:34.671Z,24.50
2018-06-30T13:08:03.896Z,24.20
2018-06-30T13:10:36.187Z,24.70
2018-06-30T13:13:06.565Z,24.30
2018-06-30T13:15:35.922Z,24.80
2018-06-30T13:18:05.802Z,24.50
2018-06-30T13:20:35.170Z,24.20
2018-06-30T13:23:05.248Z,23.90
2018-06-30T13:28:03.264Z,23.10
2018-06-30T13:30:32.457Z,22.20
2018-06-30T13:33:01.570Z,22.80
2018-06-30T13:35:30.878Z,23.60
2018-06-30T13:38:00.163Z,23.60
2018-06-30T13:40:29.366Z,24.00
2018-06-30T13:42:58.378Z,23.70
2018-06-30T13:45:27.747Z,22.90
2018-06-30T13:47:57.657Z,23.20
2018-06-30T13:50:27.678Z,24.20
2018-06-30T13:52:56.977Z,24.00
2018-06-30T13:55:26.283Z,24.80
2018-06-30T13:57:55.608Z,24.50
2018-06-30T14:00:24.858Z,24.50
2018-06-30T14:02:54.077Z,24.40
2018-06-30T14:05:23.211Z,23.40
2018-06-30T14:07:52.299Z,23.10
2018-06-30T14:10:21.431Z,23.20
2018-06-30T14:12:51.205Z,23.70
2018-06-30T14:15:20.948Z,22.60
2018-06-30T14:17:50.189Z,22.20
2018-06-30T14:20:19.358Z,22.50
2018-06-30T14:22:48.631Z,23.40
2018-06-30T14:27:46.639Z,23.50
2018-06-30T14:30:15.932Z,23.60
2018-06-30T14:32:45.223Z,23.50
2018-06-30T14:35:14.434Z,23.70
2018-06-30T14:37:43.631Z,23.10
2018-06-30T14:40:12.825Z,23.60
2018-06-30T14:42:41.993Z,23.20
2018-06-30T14:45:11.209Z,23.90
2018-06-30T14:47:40.910Z,22.40
2018-06-30T14:50:10.462Z,21.70
2018-06-30T14:52:39.903Z,21.10
2018-06-30T14:55:09.108Z,21.30
2018-06-30T14:57:38.233Z,21.30
2018-06-30T15:00:08.702Z,22.00
2018-06-30T15:02:37.927Z,21.70
2018-06-30T15:05:07.974Z,21.80
2018-06-30T15:07:37.640Z,21.80
2018-06-30T15:10:07.706Z,21.70
2018-06-30T15:12:37.105Z,22.50
2018-06-30T15:15:06.611Z,21.80
2018-06-30T15:17:36.217Z,22.10
2018-06-30T15:20:06.135Z,22.40
2018-06-30T15:22:35.258Z,22.90
2018-06-30T15:25:04.618Z,23.70
2018-06-30T15:27:33.855Z,22.90
2018-06-30T15:30:03.175Z,23.00
2018-06-30T15:32:32.471Z,22.50
2018-06-30T15:35:01.798Z,23.00
2018-06-30T15:37:30.854Z,22.50
2018-06-30T15:40:00.058Z,22.60
2018-06-30T15:42:29.256Z,22.00
2018-06-30T15:44:58.574Z,21.70
2018-06-30T15:47:28.309Z,21.70
2018-06-30T15:49:57.455Z,22.70
2018-06-30T15:52:26.555Z,22.10
2018-06-30T15:54:55.781Z,21.90
2018-06-30T15:57:25.947Z,22.10
2018-06-30T15:59:54.842Z,21.90
2018-06-30T16:02:24.159Z,23.20
2018-06-30T16:04:53.943Z,23.10
2018-06-30T16:07:23.176Z,23.20
2018-06-30T16:09:52.255Z,23.70
2018-06-30T16:12:21.490Z,23.40
2018-06-30T16:14:50.647Z,23.60
2018-06-30T16:17:20.193Z,23.70
2018-06-30T16:19:49.314Z,23.60
2018-06-30T16:22:19.084Z,23.90
2018-06-30T16:24:49.399Z,23.60
2018-06-30T16:27:18.618Z,23.50
2018-06-30T16:29:48.087Z,23.90
2018-06-30T16:32:17.247Z,23.30
2018-06-30T16:34:46.585Z,23.90
2018-06-30T16:37:15.836Z,23.60
2018-06-30T16:39:45.016Z,23.80
2018-06-30T16:42:14.126Z,24.00
2018-06-30T16:44:43.349Z,24.00
2018-06-30T16:47:12.344Z,24.40
2018-06-30T16:49:41.317Z,24.60
2018-06-30T16:52:10.999Z,24.60
2018-06-30T16:54:40.323Z,24.30
2018-06-30T16:57:09.624Z,23.80
2018-06-30T16:59:39.233Z,23.10
2018-06-30T17:02:08.623Z,23.70
2018-06-30T17:04:37.800Z,23.70
2018-06-30T17:07:07.060Z,24.10
2018-06-30T17:09:36.214Z,24.90
2018-06-30T17:12:05.412Z,24.60
2018-06-30T17:14:35.468Z,25.00
2018-06-30T17:17:04.650Z,25.50
2018-06-30T17:19:33.909Z,25.40
2018-06-30T17:22:03.122Z,26.00
2018-06-30T17:24:32.190Z,25.80
2018-06-30T17:27:01.399Z,25.60
2018-06-30T17:29:30.879Z,26.10
2018-06-30T17:32:00.033Z,25.80
2018-06-30T17:34:29.158Z,26.10
2018-06-30T17:36:58.314Z,26.00
2018-06-30T17:39:27.604Z,25.90
2018-06-30T17:41:57.090Z,26.70
2018-06-30T17:44:26.699Z,26.50
2018-06-30T17:46:55.994Z,26.60
2018-06-30T17:49:25.297Z,27.10
2018-06-30T17:51:54.669Z,27.30
2018-06-30T17:54:24.000Z,27.80
2018-06-30T17:56:53.380Z,27.50
2018-06-30T17:59:22.721Z,27.40
2018-06-30T18:01:52.183Z,27.10
2018-06-30T18:04:21.365Z,27.00
2018-06-30T18:06:50.509Z,27.30
2018-06-30T18:09:20.563Z,27.40
2018-06-30T18:11:50.024Z,27.00
2018-06-30T18:14:19.182Z,27.50
2018-06-30T18:16:49.221Z,27.40
2018-06-30T18:19:18.598Z,27.20
2018-06-30T18:21:47.927Z,27.60
2018-06-30T18:24:17.193Z,28.10
2018-06-30T18:26:46.417Z,28.70
2018-06-30T18:29:15.684Z,28.90
2018-06-30T18:31:44.651Z,29.60
2018-06-30T18:34:13.777Z,30.10
2018-06-30T18:36:43.063Z,30.50
2018-06-30T18:39:12.783Z,30.80
2018-06-30T18:41:42.379Z,30.80
2018-06-30T18:44:11.730Z,31.40
2018-06-30T18:46:42.231Z,30.80
2018-06-30T18:49:11.507Z,31.10
2018-06-30T18:51:40.697Z,31.40
2018-06-30T18:54:10.635Z,31.20
2018-06-30T18:56:39.779Z,31.80
2018-06-30T18:59:09.075Z,32.10
2018-06-30T19:01:38.305Z,32.30
2018-06-30T19:04:08.713Z,32.20
2018-06-30T19:06:37.799Z,33.20
2018-06-30T19:09:09.151Z,33.20
2018-06-30T19:11:38.359Z,33.30
2018-06-30T19:14:08.427Z,33.40
2018-06-30T19:16:37.817Z,33.90
2018-06-30T19:19:07.273Z,34.10
2018-06-30T19:21:36.719Z,34.20
2018-06-30T19:24:06.936Z,34.00
2018-06-30T19:26:36.595Z,34.30
2018-06-30T19:29:06.357Z,34.90
2018-06-30T19:31:35.555Z,35.10
2018-06-30T19:34:04.948Z,35.00
2018-06-30T19:36:35.160Z,35.20
2018-06-30T19:39:04.912Z,35.90
2018-06-30T19:41:34.552Z,36.10
2018-06-30T19:44:03.954Z,36.80
2018-06-30T19:46:33.622Z,37.00
2018-06-30T19:51:31.708Z,37.80
2018-06-30T19:54:00.995Z,37.50
2018-06-30T19:56:30.661Z,37.80
2018-06-30T19:58:59.885Z,37.20
2018-06-30T20:01:29.459Z,36.90
2018-06-30T20:03:58.638Z,37.00
2018-06-30T20:06:27.824Z,37.30
2018-06-30T20:08:57.057Z,37.50
2018-06-30T20:11:26.431Z,37.10
2018-06-30T20:13:55.824Z,37.40
2018-06-30T20:16:25.196Z,37.50
2018-06-30T20:18:54.486Z,37.40
2018-06-30T20:21:23.666Z,37.70
2018-06-30T20:23:52.779Z,37.90
2018-06-30T20:26:21.999Z,38.50
2018-06-30T20:28:51.688Z,38.50
2018-06-30T20:31:21.540Z,38.70
2018-06-30T20:33:50.796Z,38.70
2018-06-30T20:38:50.240Z,39.00
2018-06-30T20:41:19.999Z,39.20
2018-06-30T20:43:49.153Z,39.10
2018-06-30T20:46:18.626Z,39.40
2018-06-30T20:48:47.579Z,39.80
2018-06-30T20:51:16.519Z,40.20
2018-06-30T20:53:46.263Z,40.40
2018-06-30T20:56:15.281Z,41.10
2018-06-30T20:58:44.433Z,41.40
2018-06-30T21:01:13.648Z,41.60
2018-06-30T21:03:42.826Z,41.70
2018-06-30T21:06:12.634Z,42.10
2018-06-30T21:08:41.919Z,41.90
2018-06-30T21:11:11.145Z,42.40
2018-06-30T21:13:40.398Z,42.60
2018-06-30T21:16:09.700Z,42.70
2018-06-30T21:18:39.266Z,42.90
2018-06-30T21:21:08.524Z,43.00
2018-06-30T21:23:38.410Z,42.60
2018-06-30T21:26:07.654Z,42.80
2018-06-30T21:28:37.091Z,42.70
2018-06-30T21:31:06.347Z,43.60
2018-06-30T21:33:35.708Z,43.80
2018-06-30T21:36:05.419Z,44.30
2018-06-30T21:38:34.583Z,44.20
2018-06-30T21:41:03.686Z,44.80
2018-06-30T21:43:32.779Z,45.30
2018-06-30T21:46:01.875Z,46.10
2018-06-30T21:48:30.966Z,45.70
2018-06-30T21:51:00.328Z,46.10
2018-06-30T21:53:29.465Z,45.70
2018-06-30T21:55:59.371Z,46.20
2018-06-30T21:58:28.609Z,46.20
2018-06-30T22:01:03.015Z,46.10
2018-06-30T22:03:32.397Z,46.30
2018-06-30T22:06:01.710Z,45.20
2018-06-30T22:08:30.915Z,44.40
2018-06-30T22:11:00.535Z,44.20
2018-06-30T22:13:29.930Z,43.50
2018-06-30T22:15:59.558Z,43.50
2018-06-30T22:18:28.767Z,43.50
2018-06-30T22:20:58.000Z,42.40
2018-06-30T22:23:27.194Z,43.50
2018-06-30T22:25:56.410Z,43.50
2018-06-30T22:28:26.546Z,42.80
2018-06-30T22:30:55.932Z,43.60
2018-06-30T22:33:25.767Z,44.60
2018-06-30T22:35:54.921Z,44.80
2018-06-30T22:38:24.104Z,45.70
2018-06-30T22:40:53.775Z,44.60
2018-06-30T22:43:23.114Z,44.90
2018-06-30T22:45:52.329Z,44.90
2018-06-30T22:48:21.605Z,44.80
2018-06-30T22:50:50.758Z,45.20
2018-06-30T22:53:19.664Z,45.60
2018-06-30T22:55:48.979Z,46.10
2018-06-30T22:58:18.303Z,44.70
2018-06-30T23:00:47.438Z,45.50
2018-06-30T23:03:16.582Z,46.50
2018-06-30T23:05:45.780Z,47.30
2018-06-30T23:08:15.103Z,45.90
2018-06-30T23:10:44.230Z,46.40
2018-06-30T23:13:13.372Z,46.50
2018-06-30T23:15:42.959Z,45.70
2018-06-30T23:18:12.426Z,47.40
2018-06-30T23:20:41.320Z,47.90
2018-06-30T23:23:11.836Z,47.80
2018-06-30T23:25:41.339Z,47.40
2018-06-30T23:28:10.503Z,46.10
2018-06-30T23:30:39.783Z,45.70
2018-06-30T23:33:08.951Z,44.90
2018-06-30T23:35:38.879Z,45.70
2018-06-30T23:38:08.668Z,45.40
2018-06-30T23:40:37.891Z,45.90
2018-06-30T23:43:07.180Z,45.80
2018-06-30T23:45:36.945Z,45.50
2018-06-30T23:48:06.695Z,46.10
2018-06-30T23:50:35.994Z,46.40
2018-06-30T23:53:05.291Z,46.30
2018-06-30T23:55:34.583Z,46.80
2018-06-30T23:58:04.034Z,46.60
